Time;durP1;ratioP1;P1;durP2;ratioP2;P2;SDS_P1;SDS_P2;PMS_P1;PMS_P2;Temp;Humidity;BMP_temperature;BMP_pressure;BME280_temperature;BME280_humidity;BME280_pressure;Samples;Min_cycle;Max_cycle;Signal;HPM_P1;HPM_P2
2022/05/05 00:01:36;;;;;;;5.77;5.17;;;;;;;;;;5033521;28;20226;-83
2022/05/05 00:04:04;;;;;;;5.63;5.10;;;;;;;;;;5033263;28;20199;-82
2022/05/05 00:06:31;;;;;;;4.97;4.57;;;;;;;;;;5033430;28;20238;-83
2022/05/05 00:08:59;;;;;;;4.80;4.43;;;;;;;;;;5032946;28;20294;-83
2022/05/05 00:14:27;;;;;;;6.10;5.00;;;;;;;;;;5033358;28;20796;-83
2022/05/05 00:16:59;;;;;;;5.17;4.63;;;;;;;;;;5033453;28;20197;-83
2022/05/05 00:19:26;;;;;;;5.70;5.20;;;;;;;;;;5032891;28;20215;-83
2022/05/05 00:21:54;;;;;;;5.50;5.00;;;;;;;;;;5033096;28;20746;-83
2022/05/05 00:24:21;;;;;;;5.20;4.80;;;;;;;;;;5032772;28;20198;-83
2022/05/05 00:26:49;;;;;;;5.30;4.57;;;;;;;;;;5032887;28;20278;-83
2022/05/05 00:29:17;;;;;;;5.10;4.60;;;;;;;;;;5032412;28;20289;-83
2022/05/05 00:31:44;;;;;;;4.30;4.00;;;;;;;;;;5032755;28;20227;-83
2022/05/05 00:34:13;;;;;;;4.70;4.30;;;;;;;;;;5032571;28;20671;-82
2022/05/05 00:36:40;;;;;;;4.97;4.53;;;;;;;;;;5032858;28;20201;-83
2022/05/05 00:39:08;;;;;;;6.03;4.83;;;;;;;;;;5032594;28;20245;-83
2022/05/05 00:41:37;;;;;;;4.10;3.80;;;;;;;;;;5032661;28;20202;-83
2022/05/05 00:44:06;;;;;;;5.50;5.10;;;;;;;;;;5032790;28;20646;-82
2022/05/05 00:46:34;;;;;;;6.30;4.73;;;;;;;;;;5032252;28;20679;-83
2022/05/05 00:49:02;;;;;;;5.43;4.80;;;;;;;;;;5032069;28;20198;-82
2022/05/05 00:51:31;;;;;;;4.50;3.90;;;;;;;;;;5032430;28;20198;-82
2022/05/05 00:53:58;;;;;;;5.70;5.20;;;;;;;;;;5032485;28;20285;-82
2022/05/05 00:56:26;;;;;;;4.80;4.40;;;;;;;;;;5032209;28;20297;-83
2022/05/05 00:58:57;;;;;;;4.47;4.17;;;;;;;;;;5032393;28;20600;-83
2022/05/05 01:01:24;;;;;;;5.10;4.70;;;;;;;;;;5032042;28;20282;-83
2022/05/05 01:03:51;;;;;;;6.30;5.10;;;;;;;;;;5032295;28;20285;-82
2022/05/05 01:06:19;;;;;;;5.00;4.60;;;;;;;;;;5032745;28;20694;-83
2022/05/05 01:08:48;;;;;;;5.50;5.10;;;;;;;;;;5031465;28;20641;-82
2022/05/05 01:11:15;;;;;;;5.03;4.57;;;;;;;;;;5031772;28;20584;-82
2022/05/05 01:13:43;;;;;;;4.70;4.40;;;;;;;;;;5032164;28;20681;-83
2022/05/05 01:16:12;;;;;;;5.30;4.90;;;;;;;;;;5032435;28;20210;-82
2022/05/05 01:18:39;;;;;;;5.40;4.90;;;;;;;;;;5032120;28;20203;-83
2022/05/05 01:21:10;;;;;;;4.90;4.50;;;;;;;;;;5031636;28;20300;-82
2022/05/05 01:23:39;;;;;;;4.60;4.30;;;;;;;;;;5032423;28;20199;-83
2022/05/05 01:28:47;;;;;;;7.40;5.10;;;;;;;;;;4998866;28;20242;-83
2022/05/05 01:31:15;;;;;;;6.97;5.10;;;;;;;;;;5031349;28;20205;-83
2022/05/05 01:33:42;;;;;;;5.37;4.97;;;;;;;;;;5031879;28;20226;-83
2022/05/05 01:36:09;;;;;;;4.73;4.33;;;;;;;;;;5031564;28;20199;-83
2022/05/05 01:38:40;;;;;;;6.67;5.13;;;;;;;;;;5031899;28;20289;-82
2022/05/05 01:41:10;;;;;;;3.93;3.63;;;;;;;;;;5031498;28;20179;-83
2022/05/05 01:43:38;;;;;;;6.77;4.53;;;;;;;;;;5032108;28;20285;-83
2022/05/05 01:46:07;;;;;;;4.97;4.50;;;;;;;;;;5031605;28;20212;-83
2022/05/05 01:48:34;;;;;;;7.50;5.13;;;;;;;;;;5031929;28;20194;-82
2022/05/05 01:51:02;;;;;;;4.93;4.53;;;;;;;;;;5031374;28;20207;-83
2022/05/05 01:53:36;;;;;;;4.60;4.30;;;;;;;;;;5031888;28;20222;-84
2022/05/05 01:56:06;;;;;;;6.80;5.37;;;;;;;;;;5031671;28;20190;-83
2022/05/05 01:58:34;;;;;;;5.07;4.60;;;;;;;;;;5031420;28;20210;-85
2022/05/05 02:01:02;;;;;;;5.73;4.57;;;;;;;;;;5031393;28;20290;-84
2022/05/05 02:03:29;;;;;;;6.43;4.57;;;;;;;;;;5031407;28;20249;-84
2022/05/05 02:05:56;;;;;;;4.97;4.57;;;;;;;;;;5031445;28;20561;-85
2022/05/05 02:08:23;;;;;;;6.07;4.30;;;;;;;;;;5031316;28;20209;-85
2022/05/05 02:10:51;;;;;;;5.00;4.60;;;;;;;;;;5031416;28;20576;-85
2022/05/05 02:13:20;;;;;;;6.10;4.53;;;;;;;;;;5031355;28;20231;-85
2022/05/05 02:15:49;;;;;;;4.80;4.40;;;;;;;;;;5031358;28;20207;-84
2022/05/05 02:18:18;;;;;;;5.37;4.87;;;;;;;;;;5031073;28;20285;-85
2022/05/05 02:20:45;;;;;;;4.63;4.23;;;;;;;;;;5033895;28;20202;-83
2022/05/05 02:23:12;;;;;;;6.23;4.70;;;;;;;;;;5035500;28;20617;-84
2022/05/05 02:25:40;;;;;;;5.53;4.53;;;;;;;;;;5034719;28;20293;-85
2022/05/05 02:28:07;;;;;;;5.67;4.70;;;;;;;;;;5034851;28;20297;-85
2022/05/05 02:30:35;;;;;;;5.00;4.60;;;;;;;;;;5035035;28;20198;-85
2022/05/05 02:33:04;;;;;;;5.00;4.57;;;;;;;;;;5034729;28;20702;-85
2022/05/05 02:35:31;;;;;;;7.73;5.13;;;;;;;;;;5034849;28;20285;-84
2022/05/05 02:40:42;;;;;;;5.70;5.10;;;;;;;;;;5034942;28;20274;-84
2022/05/05 02:43:10;;;;;;;5.23;4.70;;;;;;;;;;5035232;28;20201;-84
2022/05/05 02:45:37;;;;;;;6.50;5.03;;;;;;;;;;5034482;28;20202;-84
2022/05/05 02:48:06;;;;;;;4.50;4.10;;;;;;;;;;5034842;28;20203;-84
2022/05/05 02:50:34;;;;;;;7.03;4.77;;;;;;;;;;5034526;28;20687;-85
2022/05/05 02:54:46;;;;;;;5.43;4.83;;;;;;;;;;5034698;28;20226;-85
2022/05/05 02:55:48;;;;;;;9.87;5.03;;;;;;;;;;5034577;28;20255;-85
2022/05/05 02:58:16;;;;;;;5.43;4.73;;;;;;;;;;5034807;28;20209;-85
2022/05/05 03:00:43;;;;;;;8.23;5.30;;;;;;;;;;5034533;28;20641;-85
2022/05/05 03:03:12;;;;;;;5.03;4.17;;;;;;;;;;5034465;28;20241;-83
2022/05/05 03:05:39;;;;;;;4.77;4.37;;;;;;;;;;5034052;28;20201;-85
2022/05/05 03:08:07;;;;;;;5.70;5.23;;;;;;;;;;5034525;28;20245;-85
2022/05/05 03:10:34;;;;;;;6.67;5.97;;;;;;;;;;5034247;28;20213;-85
2022/05/05 03:13:02;;;;;;;6.50;5.63;;;;;;;;;;5032151;28;20222;-84
2022/05/05 03:15:29;;;;;;;5.73;5.13;;;;;;;;;;5033909;28;20203;-84
2022/05/05 03:17:56;;;;;;;6.27;5.67;;;;;;;;;;5034043;28;20198;-84
2022/05/05 03:20:25;;;;;;;5.73;5.03;;;;;;;;;;5024001;28;20199;-84
2022/05/05 03:22:52;;;;;;;6.33;5.80;;;;;;;;;;5021182;28;20274;-85
2022/05/05 03:25:19;;;;;;;6.47;5.83;;;;;;;;;;5030179;28;20218;-85
2022/05/05 03:27:47;;;;;;;6.67;5.03;;;;;;;;;;5034645;28;20663;-85
2022/05/05 03:30:14;;;;;;;5.63;5.07;;;;;;;;;;5033679;28;20319;-84
2022/05/05 03:32:42;;;;;;;5.87;5.37;;;;;;;;;;5027483;28;20223;-85
2022/05/05 03:35:10;;;;;;;5.77;5.27;;;;;;;;;;5013685;28;20195;-85
2022/05/05 03:37:39;;;;;;;6.03;5.43;;;;;;;;;;5014106;28;20199;-83
2022/05/05 03:40:07;;;;;;;7.90;5.67;;;;;;;;;;5013800;28;20221;-83
2022/05/05 03:42:34;;;;;;;8.57;6.87;;;;;;;;;;5014342;28;20278;-83
2022/05/05 03:45:01;;;;;;;7.00;6.40;;;;;;;;;;5013418;28;20807;-84
2022/05/05 03:47:28;;;;;;;7.20;5.93;;;;;;;;;;5032456;28;20293;-85
2022/05/05 03:49:56;;;;;;;6.77;6.07;;;;;;;;;;5033547;28;20277;-85
2022/05/05 03:52:23;;;;;;;6.10;5.60;;;;;;;;;;5033457;28;20686;-84
2022/05/05 03:54:52;;;;;;;6.33;5.77;;;;;;;;;;5033342;28;20217;-84
2022/05/05 03:57:20;;;;;;;6.53;5.93;;;;;;;;;;5034903;28;20199;-84
2022/05/05 03:59:47;;;;;;;6.83;6.13;;;;;;;;;;5035412;28;20229;-84
2022/05/05 04:02:15;;;;;;;7.17;5.80;;;;;;;;;;5033541;28;20221;-83
2022/05/05 04:04:45;;;;;;;8.57;6.57;;;;;;;;;;5032737;28;20194;-84
2022/05/05 04:07:18;;;;;;;7.70;7.07;;;;;;;;;;5033481;28;20594;-84
2022/05/05 04:09:45;;;;;;;6.77;5.97;;;;;;;;;;5033049;28;20209;-84
2022/05/05 04:12:14;;;;;;;13.17;10.77;;;;;;;;;;5033206;28;20205;-84
2022/05/05 04:20:24;;;;;;;8.47;7.67;;;;;;;;;;5031526;28;20205;-83
2022/05/05 04:22:51;;;;;;;8.53;7.73;;;;;;;;;;5032875;28;20226;-85
2022/05/05 04:25:19;;;;;;;8.47;7.33;;;;;;;;;;5032818;28;20699;-83
2022/05/05 04:27:49;;;;;;;7.93;7.00;;;;;;;;;;5032911;28;20289;-82
2022/05/05 04:30:17;;;;;;;7.63;6.83;;;;;;;;;;5032834;28;20187;-82
2022/05/05 04:32:44;;;;;;;7.37;6.67;;;;;;;;;;5033075;28;20194;-84
2022/05/05 04:35:12;;;;;;;7.73;6.90;;;;;;;;;;5032933;28;20191;-83
2022/05/05 04:37:40;;;;;;;6.47;5.87;;;;;;;;;;5032549;28;20295;-84
2022/05/05 04:40:10;;;;;;;7.33;6.63;;;;;;;;;;5032584;28;20274;-85
2022/05/05 04:42:38;;;;;;;7.60;6.90;;;;;;;;;;5033198;28;20207;-85
2022/05/05 04:45:08;;;;;;;7.63;7.00;;;;;;;;;;5032624;28;20567;-84
2022/05/05 04:47:35;;;;;;;7.90;7.20;;;;;;;;;;5032852;28;20266;-84
2022/05/05 04:50:02;;;;;;;7.17;6.57;;;;;;;;;;5032474;28;20256;-84
2022/05/05 04:52:31;;;;;;;6.60;6.00;;;;;;;;;;5032486;28;20732;-84
2022/05/05 04:54:58;;;;;;;7.50;6.90;;;;;;;;;;5032275;28;20789;-84
2022/05/05 04:57:25;;;;;;;6.43;5.93;;;;;;;;;;5032357;28;20731;-81
2022/05/05 04:59:53;;;;;;;6.13;5.47;;;;;;;;;;5032106;28;20198;-81
2022/05/05 05:02:22;;;;;;;7.80;6.60;;;;;;;;;;5032318;28;20296;-81
2022/05/05 05:04:49;;;;;;;11.60;8.73;;;;;;;;;;5032261;28;20671;-82
2022/05/05 05:07:16;;;;;;;29.07;26.57;;;;;;;;;;5032060;28;20199;-81
2022/05/05 05:09:43;;;;;;;20.07;18.37;;;;;;;;;;5032009;28;20678;-81
2022/05/05 05:12:11;;;;;;;14.93;13.47;;;;;;;;;;5032118;28;20238;-81
2022/05/05 05:14:38;;;;;;;12.90;11.63;;;;;;;;;;5031914;28;20317;-81
2022/05/05 05:17:06;;;;;;;9.80;8.80;;;;;;;;;;5031824;28;20203;-81
2022/05/05 05:19:35;;;;;;;6.93;6.33;;;;;;;;;;5032290;28;20281;-81
2022/05/05 05:22:02;;;;;;;9.67;7.17;;;;;;;;;;5031922;28;20735;-80
2022/05/05 05:24:29;;;;;;;6.57;5.97;;;;;;;;;;5032195;28;20277;-81
2022/05/05 05:26:56;;;;;;;8.03;7.33;;;;;;;;;;5032027;28;20301;-81
2022/05/05 05:29:23;;;;;;;9.30;8.50;;;;;;;;;;5031806;28;20293;-81
2022/05/05 05:31:51;;;;;;;6.20;5.70;;;;;;;;;;5032284;28;20582;-81
2022/05/05 05:34:18;;;;;;;7.77;6.10;;;;;;;;;;5031672;28;20317;-80
2022/05/05 05:36:49;;;;;;;6.00;5.40;;;;;;;;;;5031719;28;20205;-81
2022/05/05 05:39:17;;;;;;;6.70;5.47;;;;;;;;;;5031738;28;20274;-80
2022/05/05 05:41:44;;;;;;;6.40;5.80;;;;;;;;;;5031956;28;20261;-81
2022/05/05 05:44:12;;;;;;;5.67;5.17;;;;;;;;;;5031633;28;20278;-81
2022/05/05 05:46:39;;;;;;;7.37;6.77;;;;;;;;;;5031887;28;20214;-81
2022/05/05 05:49:06;;;;;;;6.77;5.97;;;;;;;;;;5031871;28;20591;-81
2022/05/05 05:51:34;;;;;;;8.60;5.60;;;;;;;;;;5031711;28;20290;-80
2022/05/05 05:54:02;;;;;;;8.67;6.13;;;;;;;;;;5031519;28;20228;-81
2022/05/05 05:56:30;;;;;;;8.10;5.63;;;;;;;;;;5036055;28;20210;-80
2022/05/05 05:58:57;;;;;;;5.80;5.23;;;;;;;;;;5035506;28;20230;-81
2022/05/05 06:03:53;;;;;;;5.50;5.03;;;;;;;;;;5035942;28;20283;-81
2022/05/05 06:04:11;;;;;;;7.30;4.57;;;;;;;;;;5035513;28;20182;-81
2022/05/05 06:06:38;;;;;;;5.57;5.07;;;;;;;;;;5035369;28;20199;-81
2022/05/05 06:09:07;;;;;;;6.20;4.57;;;;;;;;;;5035267;28;20286;-80
2022/05/05 06:11:35;;;;;;;5.00;4.57;;;;;;;;;;5035496;28;20204;-81
2022/05/05 06:14:04;;;;;;;5.00;4.60;;;;;;;;;;5035571;28;20281;-81
2022/05/05 06:16:31;;;;;;;5.43;5.03;;;;;;;;;;5035446;28;20193;-81
2022/05/05 06:18:58;;;;;;;5.47;4.93;;;;;;;;;;5035653;28;20202;-81
2022/05/05 06:21:25;;;;;;;5.57;4.63;;;;;;;;;;5035068;28;20233;-81
2022/05/05 06:23:53;;;;;;;6.77;4.40;;;;;;;;;;5035442;28;20294;-81
2022/05/05 06:26:23;;;;;;;7.17;4.57;;;;;;;;;;5035214;28;20420;-81
2022/05/05 06:28:50;;;;;;;4.40;4.10;;;;;;;;;;5035236;28;20198;-80
2022/05/05 06:31:18;;;;;;;5.73;3.70;;;;;;;;;;5035112;28;20289;-81
2022/05/05 06:33:46;;;;;;;5.63;4.50;;;;;;;;;;5035360;28;20360;-81
2022/05/05 06:36:13;;;;;;;4.40;4.00;;;;;;;;;;5034792;28;20710;-80
2022/05/05 06:38:40;;;;;;;4.70;4.30;;;;;;;;;;5034956;28;20297;-80
2022/05/05 06:41:08;;;;;;;4.03;3.73;;;;;;;;;;5034923;28;20195;-81
2022/05/05 06:43:36;;;;;;;4.10;3.80;;;;;;;;;;5035244;28;20541;-81
2022/05/05 06:46:03;;;;;;;3.80;3.50;;;;;;;;;;5034586;28;20291;-81
2022/05/05 06:48:31;;;;;;;4.07;3.67;;;;;;;;;;5035155;28;20272;-81
2022/05/05 06:50:58;;;;;;;4.27;3.93;;;;;;;;;;5034911;28;20359;-81
2022/05/05 06:53:25;;;;;;;3.80;3.50;;;;;;;;;;5034973;28;20586;-81
2022/05/05 06:55:55;;;;;;;4.33;3.90;;;;;;;;;;5034345;28;20208;-81
2022/05/05 06:58:23;;;;;;;9.43;3.87;;;;;;;;;;5034777;28;20195;-81
2022/05/05 07:03:36;;;;;;;7.77;5.80;;;;;;;;;;5034776;28;20185;-81
2022/05/05 07:06:02;;;;;;;15.57;11.90;;;;;;;;;;5032957;28;20195;-81
2022/05/05 07:10:52;;;;;;;17.37;14.23;;;;;;;;;;5034469;28;20234;-81
2022/05/05 07:11:17;;;;;;;3.50;3.07;;;;;;;;;;5034361;28;20239;-81
2022/05/05 07:13:44;;;;;;;4.93;3.50;;;;;;;;;;5034337;28;20220;-81
2022/05/05 07:16:12;;;;;;;15.53;3.90;;;;;;;;;;5033652;28;20201;-81
2022/05/05 07:18:40;;;;;;;7.43;3.70;;;;;;;;;;5034332;28;20203;-81
2022/05/05 07:21:07;;;;;;;3.40;3.10;;;;;;;;;;5033883;28;20239;-82
2022/05/05 07:23:34;;;;;;;7.63;3.60;;;;;;;;;;5034052;28;20201;-81
2022/05/05 07:26:01;;;;;;;4.10;3.03;;;;;;;;;;5033999;28;20671;-81
2022/05/05 07:28:28;;;;;;;3.93;3.10;;;;;;;;;;5034511;28;20202;-81
2022/05/05 07:30:56;;;;;;;6.47;2.83;;;;;;;;;;5033637;28;20689;-81
2022/05/05 07:33:25;;;;;;;3.07;2.77;;;;;;;;;;5033835;28;20211;-81
2022/05/05 07:35:52;;;;;;;2.93;2.73;;;;;;;;;;5033654;28;20265;-81
2022/05/05 07:38:20;;;;;;;12.80;2.97;;;;;;;;;;5034369;28;20597;-81
2022/05/05 07:40:47;;;;;;;9.43;3.43;;;;;;;;;;5033407;28;20242;-81
2022/05/05 07:43:14;;;;;;;3.67;2.80;;;;;;;;;;5033933;28;20198;-81
2022/05/05 07:45:41;;;;;;;2.87;2.40;;;;;;;;;;5033640;28;20198;-82
2022/05/05 07:48:09;;;;;;;8.50;3.10;;;;;;;;;;5033789;28;20209;-81
2022/05/05 07:50:38;;;;;;;6.13;3.83;;;;;;;;;;5033377;28;20208;-81
2022/05/05 07:53:05;;;;;;;6.10;3.63;;;;;;;;;;5033780;28;20193;-81
2022/05/05 07:55:33;;;;;;;4.07;2.53;;;;;;;;;;5033368;28;20727;-81
2022/05/05 07:58:00;;;;;;;5.00;3.83;;;;;;;;;;5033583;28;20286;-81
2022/05/05 08:00:27;;;;;;;3.20;2.90;;;;;;;;;;5033470;28;20195;-81
2022/05/05 08:02:54;;;;;;;4.47;2.80;;;;;;;;;;5033516;28;20198;-82
2022/05/05 08:05:22;;;;;;;3.57;2.80;;;;;;;;;;5033587;28;20720;-81
2022/05/05 08:07:51;;;;;;;3.87;2.63;;;;;;;;;;5033428;28;20194;-82
2022/05/05 08:10:19;;;;;;;4.40;3.83;;;;;;;;;;5032957;28;20336;-81
2022/05/05 08:12:47;;;;;;;3.07;2.83;;;;;;;;;;5033652;28;20230;-81
2022/05/05 08:15:16;;;;;;;5.73;3.00;;;;;;;;;;5032941;28;20252;-81
2022/05/05 08:17:44;;;;;;;4.07;3.40;;;;;;;;;;5032939;28;20198;-82
2022/05/05 08:20:12;;;;;;;4.50;4.20;;;;;;;;;;5033099;28;20249;-81
2022/05/05 08:22:40;;;;;;;5.23;4.73;;;;;;;;;;5033077;28;20325;-81
2022/05/05 08:30:40;;;;;;;5.90;5.30;;;;;;;;;;5032986;28;20321;-82
2022/05/05 08:33:07;;;;;;;5.50;4.10;;;;;;;;;;5033150;28;20205;-81
2022/05/05 08:35:35;;;;;;;5.37;3.90;;;;;;;;;;5032928;28;20556;-82
2022/05/05 08:38:02;;;;;;;5.10;4.37;;;;;;;;;;5032813;28;20204;-81
2022/05/05 08:40:31;;;;;;;4.80;4.40;;;;;;;;;;5032692;28;20281;-81
2022/05/05 08:42:58;;;;;;;8.97;5.17;;;;;;;;;;5032766;28;20321;-81
2022/05/05 08:45:25;;;;;;;6.33;5.07;;;;;;;;;;5032699;28;20580;-81
2022/05/05 08:47:56;;;;;;;6.17;4.33;;;;;;;;;;5032584;28;20244;-82
2022/05/05 08:50:25;;;;;;;5.83;4.90;;;;;;;;;;5032445;28;20189;-81
2022/05/05 08:52:53;;;;;;;5.20;4.70;;;;;;;;;;5032547;28;20198;-81
2022/05/05 08:55:21;;;;;;;6.33;5.77;;;;;;;;;;5032254;28;20713;-81
2022/05/05 08:57:50;;;;;;;11.17;6.77;;;;;;;;;;5032573;28;20198;-81
2022/05/05 09:00:18;;;;;;;6.33;5.53;;;;;;;;;;5032005;28;20291;-81
2022/05/05 09:02:45;;;;;;;10.17;9.13;;;;;;;;;;5032588;28;20632;-81
2022/05/05 09:05:13;;;;;;;44.73;37.07;;;;;;;;;;5032186;28;20208;-81
2022/05/05 09:07:48;;;;;;;69.57;49.63;;;;;;;;;;5032574;28;20521;-81
2022/05/05 09:10:16;;;;;;;30.93;26.37;;;;;;;;;;5031686;28;20211;-81
2022/05/05 09:12:44;;;;;;;9.67;8.77;;;;;;;;;;5032564;28;20237;-81
2022/05/05 09:15:14;;;;;;;6.57;6.07;;;;;;;;;;5031908;28;20235;-81
2022/05/05 09:17:41;;;;;;;10.37;6.40;;;;;;;;;;5032486;28;20242;-81
2022/05/05 09:20:10;;;;;;;8.43;7.27;;;;;;;;;;5031856;28;20674;-81
2022/05/05 09:22:37;;;;;;;12.77;11.23;;;;;;;;;;5032004;28;20327;-81
2022/05/05 09:25:05;;;;;;;15.40;13.87;;;;;;;;;;5032146;28;20197;-81
2022/05/05 09:27:33;;;;;;;19.53;15.77;;;;;;;;;;5031907;28;20292;-81
2022/05/05 09:30:11;;;;;;;9.53;8.57;;;;;;;;;;5031086;28;20203;-81
2022/05/05 09:32:42;;;;;;;12.03;7.90;;;;;;;;;;5031844;28;20251;-81
2022/05/05 09:35:10;;;;;;;8.50;7.60;;;;;;;;;;5031529;28;20207;-81
2022/05/05 09:37:38;;;;;;;9.13;8.27;;;;;;;;;;5031898;28;20691;-81
2022/05/05 09:40:07;;;;;;;9.90;8.07;;;;;;;;;;5031691;28;20203;-81
2022/05/05 09:42:36;;;;;;;10.63;7.03;;;;;;;;;;5031979;28;20664;-81
2022/05/05 09:45:20;;;;;;;9.03;7.73;;;;;;;;;;5031562;28;20751;-81
2022/05/05 09:47:51;;;;;;;8.27;6.63;;;;;;;;;;5031881;28;20196;-81
2022/05/05 09:50:20;;;;;;;6.10;5.60;;;;;;;;;;5031789;28;20253;-81
2022/05/05 09:58:21;;;;;;;5.40;5.00;;;;;;;;;;5032146;28;20187;-81
2022/05/05 10:00:57;;;;;;;5.37;4.87;;;;;;;;;;5031831;28;20183;-81
2022/05/05 10:06:18;;;;;;;5.63;5.03;;;;;;;;;;5031615;28;20179;-81
2022/05/05 10:08:47;;;;;;;4.90;4.50;;;;;;;;;;5031646;28;20199;-81
2022/05/05 10:11:15;;;;;;;7.67;6.87;;;;;;;;;;5031294;28;20219;-81
2022/05/05 10:13:45;;;;;;;5.80;5.30;;;;;;;;;;5031934;28;20570;-81
2022/05/05 10:16:14;;;;;;;5.00;4.50;;;;;;;;;;5031666;28;20227;-81
2022/05/05 10:18:43;;;;;;;10.03;9.03;;;;;;;;;;5032005;28;20630;-80
2022/05/05 10:21:16;;;;;;;6.77;6.10;;;;;;;;;;5031129;28;20243;-81
2022/05/05 10:23:53;;;;;;;4.53;3.67;;;;;;;;;;5031153;28;20278;-80
2022/05/05 10:26:23;;;;;;;4.90;4.50;;;;;;;;;;5031506;28;20217;-81
2022/05/05 10:28:50;;;;;;;7.10;5.67;;;;;;;;;;5031701;28;20603;-81
2022/05/05 10:31:46;;;;;;;6.87;4.00;;;;;;;;;;5031409;28;20257;-80
2022/05/05 10:34:20;;;;;;;5.47;3.63;;;;;;;;;;5022117;28;20212;-80
2022/05/05 10:37:02;;;;;;;3.57;2.80;;;;;;;;;;5031628;28;20205;-80
2022/05/05 10:39:50;;;;;;;4.80;4.30;;;;;;;;;;5031235;28;20202;-81
2022/05/05 10:42:24;;;;;;;5.90;4.10;;;;;;;;;;5034799;28;20280;-81
2022/05/05 10:45:12;;;;;;;4.23;3.80;;;;;;;;;;5034910;28;20577;-80
2022/05/05 10:48:17;;;;;;;5.43;4.30;;;;;;;;;;5034937;28;20191;-81
2022/05/05 10:50:56;;;;;;;6.23;4.03;;;;;;;;;;5034771;28;20252;-81
2022/05/05 10:53:32;;;;;;;3.63;3.43;;;;;;;;;;5035021;28;20187;-80
2022/05/05 10:56:00;;;;;;;4.40;3.40;;;;;;;;;;5034447;28;20264;-81
2022/05/05 10:59:13;;;;;;;4.60;3.90;;;;;;;;;;5034770;28;20292;-81
2022/05/05 11:02:01;;;;;;;6.23;5.30;;;;;;;;;;4988626;28;20203;-81
2022/05/05 11:04:34;;;;;;;5.30;4.80;;;;;;;;;;5034183;28;20201;-80
2022/05/05 11:07:39;;;;;;;4.83;4.43;;;;;;;;;;5034909;28;20263;-80
2022/05/05 11:10:08;;;;;;;3.77;3.47;;;;;;;;;;5034351;28;20280;-81
2022/05/05 11:12:38;;;;;;;6.73;3.63;;;;;;;;;;5034187;28;20202;-81
2022/05/05 11:23:34;;;;;;;5.60;5.20;;;;;;;;;;5034435;28;20694;-81
2022/05/05 11:26:04;;;;;;;3.87;3.57;;;;;;;;;;5034104;28;20549;-81
2022/05/05 11:28:31;;;;;;;5.50;5.00;;;;;;;;;;5034164;28;20290;-81
2022/05/05 11:30:58;;;;;;;4.37;3.97;;;;;;;;;;5033730;28;20263;-81
2022/05/05 11:33:25;;;;;;;3.70;3.40;;;;;;;;;;5034053;28;20202;-81
2022/05/05 11:36:02;;;;;;;4.80;3.63;;;;;;;;;;5034099;28;20230;-81
2022/05/05 11:38:30;;;;;;;3.93;3.63;;;;;;;;;;5034074;28;20562;-81
2022/05/05 11:41:06;;;;;;;5.17;3.27;;;;;;;;;;5033724;28;20198;-81
2022/05/05 11:46:19;;;;;;;3.43;3.03;;;;;;;;;;5033772;28;20185;-81
2022/05/05 11:48:53;;;;;;;4.77;3.73;;;;;;;;;;5033547;28;20201;-81
2022/05/05 11:51:24;;;;;;;7.37;6.77;;;;;;;;;;5034016;28;20601;-81
2022/05/05 11:53:59;;;;;;;8.80;8.10;;;;;;;;;;5033054;28;20213;-81
2022/05/05 11:56:28;;;;;;;5.63;5.23;;;;;;;;;;5033341;28;20213;-81
2022/05/05 12:01:41;;;;;;;4.87;4.47;;;;;;;;;;5033677;28;20190;-81
2022/05/05 12:04:10;;;;;;;4.73;3.83;;;;;;;;;;5033668;28;20659;-81
2022/05/05 12:06:38;;;;;;;5.37;4.87;;;;;;;;;;5033192;28;20198;-81
2022/05/05 12:09:07;;;;;;;4.67;4.17;;;;;;;;;;5033217;28;20203;-81
2022/05/05 12:11:38;;;;;;;5.70;5.20;;;;;;;;;;5033347;28;20632;-81
2022/05/05 12:14:08;;;;;;;5.03;4.10;;;;;;;;;;5033027;28;20192;-81
2022/05/05 12:16:38;;;;;;;5.30;4.90;;;;;;;;;;5033217;28;20215;-81
2022/05/05 12:19:12;;;;;;;5.00;3.70;;;;;;;;;;5033076;28;20646;-81
2022/05/05 12:21:40;;;;;;;5.80;3.83;;;;;;;;;;5032923;28;20248;-81
2022/05/05 12:24:08;;;;;;;5.20;4.67;;;;;;;;;;5032832;28;20636;-81
2022/05/05 12:26:38;;;;;;;3.90;3.60;;;;;;;;;;5032928;28;20232;-81
2022/05/05 12:29:14;;;;;;;5.63;3.97;;;;;;;;;;5032921;28;20206;-81
2022/05/05 12:31:52;;;;;;;3.60;3.30;;;;;;;;;;5033178;28;20182;-81
2022/05/05 12:34:25;;;;;;;4.17;3.37;;;;;;;;;;5032599;28;20199;-81
2022/05/05 12:37:09;;;;;;;4.37;3.67;;;;;;;;;;5032756;28;20222;-81
2022/05/05 12:39:49;;;;;;;3.37;2.90;;;;;;;;;;5032656;28;20189;-81
2022/05/05 12:42:18;;;;;;;4.00;3.70;;;;;;;;;;5032821;28;20193;-81
2022/05/05 12:44:46;;;;;;;3.43;3.17;;;;;;;;;;5032857;28;20583;-81
2022/05/05 12:47:13;;;;;;;3.33;3.13;;;;;;;;;;5032754;28;20290;-81
2022/05/05 12:49:45;;;;;;;4.10;3.30;;;;;;;;;;5032135;28;20210;-81
2022/05/05 13:00:24;;;;;;;5.73;4.03;;;;;;;;;;5032379;28;20248;-81
2022/05/05 13:02:52;;;;;;;3.17;2.97;;;;;;;;;;5032541;28;20198;-80
2022/05/05 13:05:19;;;;;;;3.07;2.77;;;;;;;;;;5031036;28;20191;-80
2022/05/05 13:07:47;;;;;;;3.77;2.83;;;;;;;;;;5032431;28;20195;-81
2022/05/05 13:10:14;;;;;;;5.00;4.13;;;;;;;;;;5032449;28;20198;-81
2022/05/05 13:12:43;;;;;;;4.40;4.00;;;;;;;;;;5032240;28;20230;-81
2022/05/05 13:15:10;;;;;;;4.20;3.80;;;;;;;;;;5031747;28;20739;-81
2022/05/05 13:17:38;;;;;;;28.13;15.63;;;;;;;;;;5032036;28;20202;-81
2022/05/05 13:20:06;;;;;;;37.90;21.73;;;;;;;;;;5031927;28;20293;-81
2022/05/05 13:22:33;;;;;;;4.30;3.90;;;;;;;;;;5031679;28;20317;-81
2022/05/05 13:25:00;;;;;;;4.80;4.20;;;;;;;;;;5031964;28;20205;-81
2022/05/05 13:27:27;;;;;;;5.87;3.80;;;;;;;;;;5032177;28;20199;-81
2022/05/05 13:29:56;;;;;;;3.23;3.03;;;;;;;;;;5031911;28;20290;-81
2022/05/05 13:32:24;;;;;;;3.60;3.30;;;;;;;;;;5031987;28;20205;-81
2022/05/05 13:34:53;;;;;;;4.37;3.73;;;;;;;;;;5031861;28;20203;-81
2022/05/05 13:37:20;;;;;;;4.57;3.20;;;;;;;;;;5031672;28;20233;-81
2022/05/05 13:39:48;;;;;;;4.00;3.60;;;;;;;;;;5031741;28;20205;-81
2022/05/05 13:42:16;;;;;;;6.17;3.17;;;;;;;;;;5031880;28;20229;-81
2022/05/05 13:44:43;;;;;;;4.03;3.33;;;;;;;;;;5031813;28;20277;-81
2022/05/05 13:47:12;;;;;;;3.73;3.47;;;;;;;;;;5032146;28;20637;-81
2022/05/05 13:49:40;;;;;;;4.50;3.20;;;;;;;;;;5031514;28;20206;-81
2022/05/05 13:52:07;;;;;;;6.87;5.03;;;;;;;;;;5031826;28;20289;-81
2022/05/05 13:54:35;;;;;;;4.97;3.97;;;;;;;;;;5031403;28;20617;-81
2022/05/05 13:57:02;;;;;;;4.33;3.60;;;;;;;;;;5031757;28;20266;-81
2022/05/05 13:59:30;;;;;;;3.40;3.10;;;;;;;;;;5031570;28;20660;-81
2022/05/05 14:01:58;;;;;;;3.50;3.20;;;;;;;;;;5031389;28;20583;-81
2022/05/05 14:04:26;;;;;;;4.10;3.53;;;;;;;;;;5024652;28;20206;-81
2022/05/05 14:06:56;;;;;;;3.43;3.13;;;;;;;;;;5020299;28;20582;-82
2022/05/05 14:12:15;;;;;;;4.83;3.33;;;;;;;;;;5031597;28;20182;-82
2022/05/05 14:14:43;;;;;;;3.97;3.30;;;;;;;;;;5031171;28;20651;-82
2022/05/05 14:17:10;;;;;;;3.90;3.57;;;;;;;;;;5035080;28;20234;-82
2022/05/05 14:19:40;;;;;;;3.67;3.37;;;;;;;;;;5035271;28;20209;-82
2022/05/05 14:22:07;;;;;;;5.80;3.67;;;;;;;;;;5035178;28;20296;-82
2022/05/05 14:24:35;;;;;;;5.37;3.50;;;;;;;;;;5034962;28;20194;-82
2022/05/05 14:27:03;;;;;;;4.30;3.90;;;;;;;;;;5034862;28;20195;-82
2022/05/05 14:29:30;;;;;;;3.40;3.20;;;;;;;;;;5016130;28;20210;-82
2022/05/05 14:31:58;;;;;;;3.70;3.40;;;;;;;;;;5035073;28;20587;-83
2022/05/05 14:34:25;;;;;;;4.30;3.87;;;;;;;;;;5035549;28;20579;-85
2022/05/05 14:36:54;;;;;;;3.53;3.23;;;;;;;;;;5035405;28;20222;-85
2022/05/05 14:39:21;;;;;;;3.57;3.00;;;;;;;;;;5035162;28;20202;-84
2022/05/05 14:41:49;;;;;;;4.23;3.40;;;;;;;;;;5035026;28;20671;-84
2022/05/05 14:44:16;;;;;;;3.30;3.00;;;;;;;;;;5034816;28;20200;-84
2022/05/05 14:46:43;;;;;;;5.00;3.10;;;;;;;;;;5034929;28;20257;-85
2022/05/05 14:49:11;;;;;;;5.13;3.40;;;;;;;;;;5034991;28;20194;-85
2022/05/05 14:51:38;;;;;;;3.40;3.20;;;;;;;;;;5034926;28;20194;-85
2022/05/05 14:54:07;;;;;;;3.37;3.17;;;;;;;;;;5034954;28;20663;-86
2022/05/05 14:56:34;;;;;;;3.60;3.30;;;;;;;;;;5033371;28;20225;-85
2022/05/05 14:59:03;;;;;;;4.13;3.73;;;;;;;;;;5018947;28;20681;-86
2022/05/05 15:01:30;;;;;;;3.73;3.20;;;;;;;;;;5034997;28;20241;-85
2022/05/05 15:03:57;;;;;;;4.67;3.37;;;;;;;;;;5034822;28;20202;-87
2022/05/05 15:06:25;;;;;;;3.90;3.10;;;;;;;;;;5034927;28;20205;-85
2022/05/05 15:08:53;;;;;;;4.27;3.53;;;;;;;;;;5034711;28;20190;-85
2022/05/05 15:11:21;;;;;;;3.83;3.47;;;;;;;;;;5034440;28;20191;-84
2022/05/05 15:13:49;;;;;;;3.60;3.40;;;;;;;;;;5028550;28;20194;-85
2022/05/05 15:16:17;;;;;;;4.33;3.17;;;;;;;;;;5016240;28;20223;-85
2022/05/05 15:18:44;;;;;;;3.57;3.27;;;;;;;;;;5014849;28;20200;-85
2022/05/05 15:21:11;;;;;;;3.73;3.23;;;;;;;;;;5014528;28;20235;-85
2022/05/05 15:23:39;;;;;;;3.53;3.23;;;;;;;;;;5014766;28;20212;-86
2022/05/05 15:26:07;;;;;;;4.47;3.10;;;;;;;;;;5014959;28;20199;-86
2022/05/05 15:28:36;;;;;;;3.97;3.53;;;;;;;;;;5013795;28;20632;-86
2022/05/05 15:31:05;;;;;;;7.57;3.90;;;;;;;;;;5016478;28;20275;-85
2022/05/05 15:33:32;;;;;;;3.80;3.50;;;;;;;;;;5014440;28;20261;-82
2022/05/05 15:35:59;;;;;;;10.47;6.10;;;;;;;;;;5014407;28;20226;-82
2022/05/05 15:38:28;;;;;;;6.70;4.73;;;;;;;;;;5014139;28;20207;-83
2022/05/05 15:40:55;;;;;;;29.57;13.80;;;;;;;;;;5014167;28;20290;-82
2022/05/05 15:43:23;;;;;;;10.00;6.63;;;;;;;;;;5013906;28;20200;-83
2022/05/05 15:45:52;;;;;;;15.13;7.80;;;;;;;;;;5014036;28;20671;-82
2022/05/05 15:48:20;;;;;;;22.33;14.27;;;;;;;;;;5014237;28;20199;-82